createdAt,value
2023-05-02T00:03:28.031Z,8.10
2023-05-02T00:08:31.767Z,8.53
2023-05-02T00:13:37.027Z,7.83
2023-05-02T00:18:40.609Z,8.00
2023-05-02T00:23:43.983Z,8.50
2023-05-02T00:28:49.139Z,8.43
2023-05-02T00:33:52.602Z,8.23
2023-05-02T00:38:56.112Z,8.23
2023-05-02T00:44:01.527Z,7.60
2023-05-02T00:49:05.315Z,7.87
2023-05-02T00:54:08.899Z,8.40
2023-05-02T00:59:14.341Z,8.27
2023-05-02T01:04:23.644Z,8.50
2023-05-02T01:09:31.546Z,8.57
2023-05-02T01:14:37.777Z,8.03
2023-05-02T01:19:43.672Z,7.33
2023-05-02T01:24:54.540Z,6.87
2023-05-02T01:30:02.004Z,7.10
2023-05-02T01:35:06.453Z,8.13
2023-05-02T01:40:11.429Z,8.00
2023-05-02T01:45:17.669Z,7.93
2023-05-02T01:50:22.550Z,7.60
2023-05-02T01:55:26.566Z,7.17
2023-05-02T02:00:32.190Z,6.17
2023-05-02T02:05:36.706Z,6.80
2023-05-02T02:10:42.642Z,7.10
2023-05-02T02:15:48.990Z,8.20
2023-05-02T02:20:54.409Z,7.93
2023-05-02T02:25:59.135Z,8.50
2023-05-02T02:31:04.392Z,8.43
2023-05-02T02:36:09.820Z,6.87
2023-05-02T02:41:14.873Z,6.57
2023-05-02T02:46:29.381Z,8.00
2023-05-02T02:51:34.729Z,7.73
2023-05-02T02:56:41.750Z,8.80
2023-05-02T03:01:50.681Z,8.33
2023-05-02T03:06:54.593Z,9.43
2023-05-02T03:11:58.849Z,8.30
2023-05-02T03:17:05.246Z,8.90
2023-05-02T03:22:09.639Z,9.00
2023-05-02T03:27:13.795Z,8.97
2023-05-02T03:32:20.580Z,8.83
2023-05-02T03:37:24.621Z,9.13
2023-05-02T03:42:28.612Z,9.67
2023-05-02T03:47:33.805Z,9.03
2023-05-02T03:52:37.431Z,9.23
2023-05-02T03:57:41.092Z,9.63
2023-05-02T04:02:49.379Z,10.10
2023-05-02T04:07:57.201Z,10.13
2023-05-02T04:13:03.452Z,9.53
2023-05-02T04:18:11.173Z,8.87
2023-05-02T04:23:22.432Z,9.70
2023-05-02T04:28:31.325Z,10.07
2023-05-02T04:33:37.508Z,10.60
2023-05-02T04:38:41.656Z,11.43
2023-05-02T04:43:45.909Z,10.40
2023-05-02T04:48:52.567Z,10.00
2023-05-02T04:53:56.765Z,9.60
2023-05-02T04:59:00.835Z,9.47
2023-05-02T05:04:07.236Z,9.60
2023-05-02T05:09:10.934Z,9.30
2023-05-02T05:14:14.994Z,9.33
2023-05-02T05:19:23.266Z,10.03
2023-05-02T05:24:27.149Z,8.57
2023-05-02T05:29:34.213Z,9.03
2023-05-02T05:34:39.336Z,8.40
2023-05-02T05:39:42.770Z,9.00
2023-05-02T05:44:47.891Z,7.83
2023-05-02T05:49:55.789Z,7.17
2023-05-02T05:55:04.633Z,7.57
2023-05-02T06:00:09.094Z,7.53
2023-05-02T06:05:21.198Z,7.67
2023-05-02T06:10:24.971Z,7.77
2023-05-02T06:15:29.335Z,7.73
2023-05-02T06:20:34.226Z,7.30
2023-05-02T06:25:39.301Z,7.30
2023-05-02T06:30:42.883Z,7.17
2023-05-02T06:35:52.558Z,7.90
2023-05-02T06:40:58.478Z,8.47
2023-05-02T06:46:03.734Z,8.67
2023-05-02T06:51:09.102Z,7.67
2023-05-02T06:56:12.405Z,8.23
2023-05-02T07:01:17.644Z,8.50
2023-05-02T07:06:22.977Z,9.23
2023-05-02T07:11:27.977Z,8.70
2023-05-02T07:16:32.145Z,9.70
2023-05-02T07:21:37.488Z,8.53
2023-05-02T07:26:41.948Z,8.43
2023-05-02T07:31:45.985Z,8.23
2023-05-02T07:36:51.800Z,8.83
2023-05-02T07:41:56.049Z,8.73
2023-05-02T07:47:00.577Z,9.50
2023-05-02T07:52:05.997Z,9.10
2023-05-02T07:57:11.443Z,9.90
2023-05-02T08:02:15.769Z,10.60
2023-05-02T08:07:22.817Z,10.57
2023-05-02T08:12:26.854Z,10.53
2023-05-02T08:17:34.247Z,10.40
2023-05-02T08:22:43.180Z,10.50
2023-05-02T08:27:47.584Z,11.10
2023-05-02T08:32:51.828Z,12.17
2023-05-02T08:37:57.503Z,10.67
2023-05-02T08:43:02.398Z,11.10
2023-05-02T08:48:10.510Z,10.70
2023-05-02T08:53:15.903Z,10.40
2023-05-02T08:58:19.382Z,9.40
2023-05-02T09:03:29.720Z,8.80
2023-05-02T09:08:35.342Z,10.10
2023-05-02T09:13:39.693Z,8.93
2023-05-02T09:18:44.205Z,9.20
2023-05-02T09:23:50.181Z,7.53
2023-05-02T09:28:54.583Z,7.27
2023-05-02T09:33:59.379Z,8.10
2023-05-02T09:39:10.584Z,8.20
2023-05-02T09:44:15.310Z,7.83
2023-05-02T09:49:20.211Z,7.63
2023-05-02T09:54:40.573Z,6.80
2023-05-02T09:59:54.326Z,8.37
2023-05-02T10:04:58.873Z,8.10
2023-05-02T10:10:04.801Z,7.53
2023-05-02T10:15:10.434Z,7.83
2023-05-02T10:20:17.225Z,7.53
2023-05-02T10:25:23.042Z,7.30
2023-05-02T10:30:27.306Z,7.00
2023-05-02T10:35:32.294Z,6.73
2023-05-02T10:40:37.420Z,6.83
2023-05-02T10:45:41.897Z,6.50
2023-05-02T10:50:47.840Z,6.60
2023-05-02T10:56:06.191Z,7.10
2023-05-02T11:01:25.342Z,7.20
2023-05-02T11:06:30.965Z,6.53
2023-05-02T11:11:43.618Z,6.53
2023-05-02T11:17:06.532Z,6.47
2023-05-02T11:22:27.461Z,6.53
2023-05-02T11:27:44.109Z,7.60
2023-05-02T11:33:06.359Z,7.30
2023-05-02T11:38:12.018Z,6.47
2023-05-02T11:43:17.840Z,7.23
2023-05-02T11:48:22.543Z,5.70
2023-05-02T11:53:27.073Z,6.30
2023-05-02T11:58:33.851Z,5.60
2023-05-02T12:03:37.723Z,6.17
2023-05-02T12:08:41.885Z,5.40
2023-05-02T12:13:51.445Z,5.70
2023-05-02T12:18:56.891Z,6.00
2023-05-02T12:24:00.973Z,5.30
2023-05-02T12:29:07.995Z,5.80
2023-05-02T12:34:11.509Z,5.50
2023-05-02T12:39:15.294Z,4.97
2023-05-02T12:44:37.037Z,6.07
2023-05-02T12:49:50.912Z,6.10
2023-05-02T12:54:54.827Z,6.80
2023-05-02T13:00:00.076Z,6.20
2023-05-02T13:05:04.693Z,6.07
2023-05-02T13:10:09.238Z,6.67
2023-05-02T13:15:15.033Z,7.07
2023-05-02T13:20:18.613Z,7.97
2023-05-02T13:25:22.522Z,8.87
2023-05-02T13:30:27.460Z,8.50
2023-05-02T13:35:33.283Z,7.83
2023-05-02T13:40:37.498Z,7.57
2023-05-02T13:45:42.453Z,6.43
2023-05-02T13:50:46.098Z,7.57
2023-05-02T13:55:49.704Z,8.03
2023-05-02T14:00:55.112Z,7.70
2023-05-02T14:05:58.541Z,8.83
2023-05-02T14:11:02.379Z,8.00
2023-05-02T14:16:08.159Z,7.70
2023-05-02T14:21:11.706Z,8.47
2023-05-02T14:26:15.502Z,7.90
2023-05-02T14:31:20.749Z,8.37
2023-05-02T14:36:24.241Z,7.73
2023-05-02T14:41:28.061Z,6.97
2023-05-02T14:46:33.218Z,7.57
2023-05-02T14:51:39.560Z,6.27
2023-05-02T14:56:42.909Z,6.73
2023-05-02T15:01:48.034Z,5.70
2023-05-02T15:06:54.262Z,5.23
2023-05-02T15:11:58.376Z,4.70
2023-05-02T15:17:03.678Z,4.27
2023-05-02T15:22:07.215Z,3.77
2023-05-02T15:27:11.164Z,5.93
2023-05-02T15:32:16.355Z,4.73
2023-05-02T15:37:20.224Z,5.73
2023-05-02T15:42:23.643Z,5.07
2023-05-02T15:47:28.971Z,4.87
2023-05-02T15:52:32.597Z,4.53
2023-05-02T15:57:35.904Z,4.97
2023-05-02T16:02:42.176Z,4.73
2023-05-02T16:07:46.050Z,3.83
2023-05-02T16:12:49.429Z,3.80
2023-05-02T16:17:54.570Z,5.23
2023-05-02T16:22:58.459Z,5.50
2023-05-02T16:28:02.038Z,5.77
2023-05-02T16:33:07.227Z,4.67
2023-05-02T16:38:10.655Z,4.63
2023-05-02T16:43:13.936Z,5.50
2023-05-02T16:48:19.428Z,5.13
2023-05-02T16:53:22.968Z,2.70
2023-05-02T16:58:28.855Z,3.07
2023-05-02T17:03:33.686Z,3.00
2023-05-02T17:08:37.220Z,3.77
2023-05-02T17:13:40.577Z,4.23
2023-05-02T17:18:45.556Z,3.70
2023-05-02T17:23:48.897Z,5.13
2023-05-02T17:28:54.077Z,4.73
2023-05-02T17:33:58.839Z,5.27
2023-05-02T17:39:02.339Z,5.70
2023-05-02T17:44:05.936Z,6.67
2023-05-02T17:49:11.375Z,6.87
2023-05-02T17:54:15.150Z,7.13
2023-05-02T17:59:19.208Z,6.83
2023-05-02T18:04:24.821Z,5.70
2023-05-02T18:09:28.577Z,6.47
2023-05-02T18:14:32.797Z,5.90
2023-05-02T18:19:38.136Z,5.97
2023-05-02T18:24:41.825Z,6.03
2023-05-02T18:29:45.451Z,6.00
2023-05-02T18:34:51.082Z,5.50
2023-05-02T18:39:54.613Z,5.50
2023-05-02T18:44:58.659Z,6.17
2023-05-02T18:50:05.133Z,6.07
2023-05-02T18:55:16.546Z,6.33
2023-05-02T19:00:25.389Z,6.07
2023-05-02T19:05:34.950Z,5.87
2023-05-02T19:10:38.823Z,6.57
2023-05-02T19:15:42.834Z,7.77
2023-05-02T19:20:50.097Z,7.87
2023-05-02T19:25:54.613Z,7.73
2023-05-02T19:30:58.432Z,7.33
2023-05-02T19:36:05.314Z,7.47
2023-05-02T19:41:10.645Z,8.70
2023-05-02T19:46:18.299Z,9.10
2023-05-02T19:51:26.168Z,8.30
2023-05-02T19:56:30.220Z,6.20
2023-05-02T20:01:34.236Z,7.30
2023-05-02T20:06:40.338Z,7.43
2023-05-02T20:11:44.898Z,5.87
2023-05-02T20:16:48.672Z,5.27
2023-05-02T20:22:00.149Z,6.00
2023-05-02T20:27:12.968Z,5.63
2023-05-02T20:32:17.122Z,6.20
2023-05-02T20:37:24.037Z,6.70
2023-05-02T20:42:27.740Z,5.73
2023-05-02T20:47:31.948Z,5.63
2023-05-02T20:52:37.773Z,5.47
2023-05-02T20:57:41.233Z,5.50
2023-05-02T21:02:44.995Z,4.47
2023-05-02T21:07:50.001Z,4.40
2023-05-02T21:12:53.400Z,4.97
2023-05-02T21:18:03.628Z,4.20
2023-05-02T21:23:11.320Z,4.03
2023-05-02T21:28:15.085Z,3.70
2023-05-02T21:33:18.654Z,3.13
2023-05-02T21:38:23.658Z,3.40
2023-05-02T21:43:27.104Z,3.23
2023-05-02T21:48:30.619Z,2.80
2023-05-02T21:53:35.290Z,2.97
2023-05-02T21:58:38.898Z,3.20
2023-05-02T22:03:42.465Z,3.20
2023-05-02T22:08:47.601Z,3.33
2023-05-02T22:13:51.412Z,3.37
2023-05-02T22:18:57.383Z,3.27
2023-05-02T22:24:02.175Z,3.90
2023-05-02T22:29:05.862Z,4.00
2023-05-02T22:34:09.467Z,3.73
2023-05-02T22:39:16.021Z,3.87
2023-05-02T22:44:19.987Z,4.23
2023-05-02T22:49:23.972Z,5.37
2023-05-02T22:54:29.045Z,4.97
2023-05-02T22:59:32.594Z,4.90
2023-05-02T23:04:36.252Z,5.23
2023-05-02T23:09:41.052Z,5.90
2023-05-02T23:14:44.607Z,5.80
2023-05-02T23:19:49.119Z,5.60
2023-05-02T23:24:55.603Z,5.07
2023-05-02T23:29:59.259Z,5.10
2023-05-02T23:35:03.098Z,5.30
2023-05-02T23:40:11.784Z,5.77
2023-05-02T23:45:15.390Z,4.90
2023-05-02T23:50:19.628Z,5.33
2023-05-02T23:55:27.222Z,4.90
